Time;durP1;ratioP1;P1;durP2;ratioP2;P2;SDS_P1;SDS_P2;PMS_P1;PMS_P2;Temp;Humidity;BMP_temperature;BMP_pressure;BME280_temperature;BME280_humidity;BME280_pressure;Samples;Min_cycle;Max_cycle;Signal;HPM_P1;HPM_P2
2019/06/22 00:00:02;;;;;;;2.6;1.5;;;;;;;30.29;31.06543;1005.492;;;;
2019/06/22 00:02:27;;;;;;;2.3;1.4;;;;;;;30.28;31.07715;1005.445;;;;
2019/06/22 00:04:54;;;;;;;1.9;1.3;;;;;;;30.28;31.06543;1005.415;;;;
2019/06/22 00:05:20;;;;;;;3;1.3;;;;;;;30.28;31.05273;1005.414;;;;
2019/06/22 00:07:45;;;;;;;2.4;1.2;;;;;;;30.32;30.98242;1005.385;;;;
2019/06/22 00:10:11;;;;;;;1.9;1.2;;;;;;;30.31;30.98145;1005.426;;;;
2019/06/22 00:12:36;;;;;;;2.9;1.3;;;;;;;30.3;30.98047;1005.418;;;;
2019/06/22 00:15:01;;;;;;;1.4;1.1;;;;;;;30.29;31.00488;1005.491;;;;
2019/06/22 00:17:26;;;;;;;1.8;1.3;;;;;;;30.29;31.0293;1005.533;;;;
2019/06/22 00:19:54;;;;;;;2.1;1.2;;;;;;;30.27;31.04004;1005.517;;;;
2019/06/22 00:22:20;;;;;;;1.4;1.1;;;;;;;30.27;31.02832;1005.531;;;;
2019/06/22 00:24:47;;;;;;;2;1.4;;;;;;;30.26;31.02832;1005.479;;;;
2019/06/22 00:25:29;;;;;;;2.3;1.4;;;;;;;30.27;31.02832;1005.456;;;;
2019/06/22 00:27:54;;;;;;;2.4;1.3;;;;;;;30.31;30.94531;1005.472;;;;
2019/06/22 00:30:19;;;;;;;2.5;1.3;;;;;;;30.3;30.94434;1005.515;;;;
2019/06/22 00:32:44;;;;;;;1.7;1.3;;;;;;;30.29;30.98047;1005.508;;;;
2019/06/22 00:35:10;;;;;;;1.9;1.3;;;;;;;30.28;30.98047;1005.424;;;;
2019/06/22 00:37:35;;;;;;;2.8;1.2;;;;;;;30.28;30.99121;1005.442;;;;
2019/06/22 00:40:54;;;;;;;2.4;1.2;;;;;;;30.32;30.89648;1005.516;;;;
2019/06/22 00:43:30;;;;;;;1.9;1.3;;;;;;;30.31;30.9209;1005.463;;;;
2019/06/22 00:46:06;;;;;;;2.6;1.5;;;;;;;30.28;30.95508;1005.424;;;;
2019/06/22 00:48:32;;;;;;;1.8;1.2;;;;;;;30.26;31.01563;1005.453;;;;
2019/06/22 00:50:59;;;;;;;2.2;1.4;;;;;;;30.25;31.01465;1005.438;;;;
2019/06/22 00:51:36;;;;;;;2.4;1.2;;;;;;;30.26;31.01465;1005.403;;;;
2019/06/22 00:54:01;;;;;;;2.2;1.3;;;;;;;30.26;30.99121;1005.382;;;;
2019/06/22 00:56:27;;;;;;;2.5;1.4;;;;;;;30.26;31.00293;1005.314;;;;
2019/06/22 00:58:52;;;;;;;2.2;1.3;;;;;;;30.24;31.00195;1005.23;;;;
2019/06/22 01:01:17;;;;;;;1.5;1.1;;;;;;;30.25;31.00195;1005.217;;;;
2019/06/22 01:03:44;;;;;;;1.7;1.1;;;;;;;30.23;31.0127;1005.186;;;;
2019/06/22 01:06:09;;;;;;;1.5;1.2;;;;;;;30.23;31.02637;1005.17;;;;
2019/06/22 01:08:34;;;;;;;1.1;1;;;;;;;30.23;31.03809;1005.171;;;;
2019/06/22 01:10:59;;;;;;;1.7;1.3;;;;;;;30.23;31.03809;1005.155;;;;
2019/06/22 01:13:25;;;;;;;3;1.2;;;;;;;30.23;31.02539;1005.105;;;;
2019/06/22 01:15:51;;;;;;;1.6;1.2;;;;;;;30.22;31.03613;1005.117;;;;
2019/06/22 01:18:16;;;;;;;1.7;1.4;;;;;;;30.23;31.0498;1005.126;;;;
2019/06/22 01:20:41;;;;;;;2.2;1.4;;;;;;;30.22;31.03711;1005.096;;;;
2019/06/22 01:23:06;;;;;;;3.3;1.3;;;;;;;30.21;31.04785;1005.085;;;;
2019/06/22 01:25:31;;;;;;;2.2;1.3;;;;;;;30.22;31.04883;1005.081;;;;
2019/06/22 01:27:57;;;;;;;1.8;1.3;;;;;;;30.22;31.03613;1005.117;;;;
2019/06/22 01:30:22;;;;;;;2;1.4;;;;;;;30.21;31.04883;1005.089;;;;
2019/06/22 01:32:47;;;;;;;1.8;1.3;;;;;;;30.2;31.03613;1005.067;;;;
2019/06/22 01:35:13;;;;;;;2.4;1.4;;;;;;;30.21;31.03613;1005.109;;;;
2019/06/22 01:37:38;;;;;;;1.4;1.2;;;;;;;30.2;31.02344;1005.088;;;;
2019/06/22 01:40:57;;;;;;;2;1.3;;;;;;;30.2;31.02344;1005.154;;;;
2019/06/22 01:43:22;;;;;;;1.5;1.1;;;;;;;30.2;31.04785;1005.127;;;;
2019/06/22 01:45:48;;;;;;;2;1.2;;;;;;;30.19;31.02246;1005.153;;;;
2019/06/22 01:48:13;;;;;;;2.5;1.3;;;;;;;30.19;31.01074;1005.129;;;;
2019/06/22 01:50:39;;;;;;;1.6;1.2;;;;;;;30.2;31.02344;1005.138;;;;
2019/06/22 01:53:06;;;;;;;2.4;1.3;;;;;;;30.18;31.02246;1005.115;;;;
2019/06/22 01:55:39;;;;;;;2;1.3;;;;;;;30.18;31.03418;1005.107;;;;
2019/06/22 01:58:07;;;;;;;1.7;1.2;;;;;;;30.16;31.05762;1005.076;;;;
2019/06/22 02:00:32;;;;;;;2;1.2;;;;;;;30.15;31.08105;1005.073;;;;
2019/06/22 02:02:58;;;;;;;1.8;1.3;;;;;;;30.14;31.08105;1005.035;;;;
2019/06/22 02:05:47;;;;;;;2.2;1.4;;;;;;;30.13;31.0791;1005.014;;;;
2019/06/22 02:08:16;;;;;;;1.8;1.4;;;;;;;30.12;31.09082;1005.016;;;;
2019/06/22 02:10:42;;;;;;;1.4;1.1;;;;;;;30.11;31.09082;1005.047;;;;
2019/06/22 02:13:15;;;;;;;2.3;1.2;;;;;;;30.12;31.10352;1005.043;;;;
2019/06/22 02:15:55;;;;;;;2.1;1.3;;;;;;;30.09;31.08887;1004.953;;;;
2019/06/22 02:18:20;;;;;;;1.9;1.1;;;;;;;30.07;31.10059;1004.952;;;;
2019/06/22 02:20:45;;;;;;;1.9;1.4;;;;;;;30.08;31.07617;1004.99;;;;
2019/06/22 02:23:11;;;;;;;2.3;1.3;;;;;;;30.1;31.02832;1005.018;;;;
2019/06/22 02:25:36;;;;;;;2.4;1.2;;;;;;;30.1;30.97949;1005.044;;;;
2019/06/22 02:28:01;;;;;;;1.6;1;;;;;;;30.1;30.97949;1005.031;;;;
2019/06/22 02:30:26;;;;;;;3.3;1.3;;;;;;;30.1;30.96777;1005.016;;;;
2019/06/22 02:32:52;;;;;;;1.7;1.1;;;;;;;30.1;30.96777;1004.958;;;;
2019/06/22 02:35:17;;;;;;;2.4;1.2;;;;;;;30.1;30.96777;1004.866;;;;
2019/06/22 02:37:42;;;;;;;1.9;1.3;;;;;;;30.1;30.88184;1004.817;;;;
2019/06/22 02:40:07;;;;;;;1.5;1.1;;;;;;;30.09;30.84473;1004.766;;;;
2019/06/22 02:42:35;;;;;;;1.9;1.2;;;;;;;30.08;30.84375;1004.799;;;;
2019/06/22 02:45:00;;;;;;;4.1;1.2;;;;;;;30.08;30.86816;1004.801;;;;
2019/06/22 02:47:26;;;;;;;1.8;1.2;;;;;;;30.08;30.89258;1004.767;;;;
2019/06/22 02:50:09;;;;;;;2.9;1.2;;;;;;;30.08;30.86816;1004.707;;;;
2019/06/22 02:53:28;;;;;;;2.3;1.3;;;;;;;30.08;30.9043;1004.712;;;;
2019/06/22 02:55:53;;;;;;;2.1;1.4;;;;;;;30.17;30.73926;1004.638;;;;
2019/06/22 02:58:19;;;;;;;2.6;1.3;;;;;;;30.15;30.77539;1004.584;;;;
2019/06/22 03:00:44;;;;;;;2.2;1.2;;;;;;;30.14;30.81055;1004.564;;;;
2019/06/22 03:03:19;;;;;;;2.2;1.2;;;;;;;30.12;30.82129;1004.55;;;;
2019/06/22 03:05:45;;;;;;;2.3;1.3;;;;;;;30.1;30.85742;1004.535;;;;
2019/06/22 03:08:16;;;;;;;1.7;1.2;;;;;;;30.08;30.88086;1004.504;;;;
2019/06/22 03:10:41;;;;;;;2.1;1.3;;;;;;;30.07;30.87988;1004.439;;;;
2019/06/22 03:13:06;;;;;;;1.5;1;;;;;;;30.07;30.87988;1004.449;;;;
2019/06/22 03:16:25;;;;;;;2.2;1.2;;;;;;;30.1;30.85742;1004.508;;;;
2019/06/22 03:18:50;;;;;;;2.5;1.3;;;;;;;30.11;30.83301;1004.489;;;;
2019/06/22 03:21:16;;;;;;;1.7;1.1;;;;;;;30.11;30.8457;1004.509;;;;
2019/06/22 03:24:45;;;;;;;2;1.3;;;;;;;30.15;30.78711;1004.482;;;;
2019/06/22 03:27:12;;;;;;;1.7;1;;;;;;;30.14;30.79785;1004.506;;;;
2019/06/22 03:29:37;;;;;;;2.2;1.1;;;;;;;30.13;30.80957;1004.541;;;;
2019/06/22 03:32:02;;;;;;;1.5;1.1;;;;;;;30.12;30.8457;1004.545;;;;
2019/06/22 03:34:28;;;;;;;2.6;1.1;;;;;;;30.1;30.85742;1004.494;;;;
2019/06/22 03:36:53;;;;;;;2.4;1.3;;;;;;;30.1;30.85742;1004.549;;;;
2019/06/22 03:39:18;;;;;;;2.5;1.3;;;;;;;30.08;30.88086;1004.564;;;;
2019/06/22 03:41:43;;;;;;;1.8;1.2;;;;;;;30.09;30.88086;1004.533;;;;
2019/06/22 03:44:09;;;;;;;1.8;1.1;;;;;;;30.08;30.86816;1004.541;;;;
2019/06/22 03:46:34;;;;;;;2.2;1.2;;;;;;;30.07;30.85547;1004.536;;;;
2019/06/22 03:48:59;;;;;;;2.2;1.2;;;;;;;30.06;30.86719;1004.523;;;;
2019/06/22 03:51:27;;;;;;;1.7;1.1;;;;;;;30.07;30.87988;1004.483;;;;
2019/06/22 03:53:54;;;;;;;2.1;1.1;;;;;;;30.05;30.85352;1004.537;;;;
2019/06/22 03:56:24;;;;;;;3.5;1.2;;;;;;;30.04;30.87695;1004.556;;;;
2019/06/22 03:58:52;;;;;;;2.2;1.1;;;;;;;30.03;30.87695;1004.557;;;;
2019/06/22 04:01:17;;;;;;;1.8;1;;;;;;;30.03;30.90137;1004.586;;;;
2019/06/22 04:03:43;;;;;;;3;1;;;;;;;30.03;30.90137;1004.585;;;;
2019/06/22 04:06:08;;;;;;;1.7;1.2;;;;;;;30.04;30.87793;1004.551;;;;
2019/06/22 04:08:34;;;;;;;2.3;1.2;;;;;;;30.04;30.89063;1004.558;;;;
2019/06/22 04:10:59;;;;;;;1.7;1.1;;;;;;;30.05;30.89063;1004.528;;;;
2019/06/22 04:11:33;;;;;;;1.8;1.2;;;;;;;30.05;30.89063;1004.509;;;;
2019/06/22 04:14:00;;;;;;;2.4;1.2;;;;;;;30.05;30.87891;1004.56;;;;
2019/06/22 04:16:26;;;;;;;1.5;1.1;;;;;;;30.05;30.90234;1004.518;;;;
2019/06/22 04:18:51;;;;;;;2.1;1.3;;;;;;;30.06;30.89063;1004.539;;;;
2019/06/22 04:21:18;;;;;;;1.5;0.9;;;;;;;30.05;30.89063;1004.466;;;;
2019/06/22 04:23:43;;;;;;;2.1;1.4;;;;;;;30.04;30.91406;1004.435;;;;
2019/06/22 04:26:09;;;;;;;1.3;0.9;;;;;;;30.04;30.92676;1004.439;;;;
2019/06/22 04:28:35;;;;;;;1.7;1.1;;;;;;;30.05;30.91504;1004.489;;;;
2019/06/22 04:31:00;;;;;;;1.4;1.1;;;;;;;30.05;30.91504;1004.536;;;;
2019/06/22 04:33:25;;;;;;;1.7;1;;;;;;;30.05;30.91504;1004.547;;;;
2019/06/22 04:35:50;;;;;;;1.6;1.2;;;;;;;30.05;30.91504;1004.549;;;;
2019/06/22 04:38:15;;;;;;;1.7;1.2;;;;;;;30.06;30.92773;1004.51;;;;
2019/06/22 04:40:51;;;;;;;3.4;1.2;;;;;;;30.05;30.92773;1004.534;;;;
2019/06/22 04:43:16;;;;;;;1.7;1.1;;;;;;;30.04;30.93945;1004.541;;;;
2019/06/22 04:45:42;;;;;;;1.4;1.1;;;;;;;30.05;30.93945;1004.558;;;;
2019/06/22 04:49:01;;;;;;;2.8;1.3;;;;;;;30.07;30.86719;1004.53;;;;
2019/06/22 04:51:26;;;;;;;2.5;1.2;;;;;;;30.07;30.87988;1004.519;;;;
2019/06/22 04:53:52;;;;;;;2.2;1.1;;;;;;;30.06;30.86719;1004.521;;;;
2019/06/22 04:56:18;;;;;;;1.6;1.1;;;;;;;30.05;30.86621;1004.515;;;;
2019/06/22 04:58:43;;;;;;;1.2;1.1;;;;;;;30.04;30.91504;1004.518;;;;
2019/06/22 05:01:10;;;;;;;1.4;1;;;;;;;30.03;30.91309;1004.485;;;;
2019/06/22 05:03:35;;;;;;;1.8;1.2;;;;;;;30.03;30.91309;1004.479;;;;
2019/06/22 05:06:53;;;;;;;2.8;1.1;;;;;;;30.09;30.81934;1004.505;;;;
2019/06/22 05:09:19;;;;;;;2.1;1.2;;;;;;;30.08;30.81934;1004.505;;;;
2019/06/22 05:11:44;;;;;;;1.6;1.1;;;;;;;30.07;30.84277;1004.552;;;;
2019/06/22 05:14:19;;;;;;;2.5;1.2;;;;;;;30.05;30.87793;1004.556;;;;
2019/06/22 05:16:45;;;;;;;1.8;1.1;;;;;;;30.03;30.88867;1004.552;;;;
2019/06/22 05:19:10;;;;;;;2.1;1;;;;;;;30.01;30.90039;1004.552;;;;
2019/06/22 05:21:36;;;;;;;1.7;1;;;;;;;30.01;30.89941;1004.517;;;;
2019/06/22 05:24:01;;;;;;;2;1.2;;;;;;;30.01;30.9248;1004.584;;;;
2019/06/22 05:26:27;;;;;;;2;1;;;;;;;30;30.91113;1004.585;;;;
2019/06/22 05:28:52;;;;;;;2;1.1;;;;;;;30;30.8877;1004.569;;;;
2019/06/22 05:31:18;;;;;;;3.4;1.4;;;;;;;30;30.8877;1004.559;;;;
2019/06/22 05:33:43;;;;;;;2.4;1.2;;;;;;;30;30.8623;1004.559;;;;
2019/06/22 05:36:09;;;;;;;1.7;1.1;;;;;;;30;30.91113;1004.595;;;;
2019/06/22 05:38:51;;;;;;;2.1;1.2;;;;;;;29.99;30.88672;1004.586;;;;
2019/06/22 05:41:17;;;;;;;2.1;1.4;;;;;;;29.98;30.92285;1004.588;;;;
2019/06/22 05:43:57;;;;;;;2.9;1.1;;;;;;;29.99;30.91113;1004.59;;;;
2019/06/22 05:46:22;;;;;;;6;1;;;;;;;29.99;30.92383;1004.593;;;;
2019/06/22 05:48:47;;;;;;;3;1.1;;;;;;;30;30.875;1004.582;;;;
2019/06/22 05:52:07;;;;;;;2.2;1.3;;;;;;;30.08;30.75781;1004.559;;;;
2019/06/22 05:54:32;;;;;;;4.6;1.3;;;;;;;30.08;30.75781;1004.575;;;;
2019/06/22 05:56:57;;;;;;;2.9;1.2;;;;;;;30.07;30.78223;1004.572;;;;
2019/06/22 05:59:22;;;;;;;3.3;1.1;;;;;;;30.06;30.79395;1004.589;;;;
2019/06/22 06:01:48;;;;;;;2.7;1.2;;;;;;;30.06;30.75586;1004.552;;;;
2019/06/22 06:04:24;;;;;;;2;1.2;;;;;;;30.06;30.80469;1004.58;;;;
2019/06/22 06:06:49;;;;;;;1.6;1.2;;;;;;;30.06;30.81738;1004.574;;;;
2019/06/22 06:09:14;;;;;;;2.4;1;;;;;;;30.05;30.8291;1004.606;;;;
2019/06/22 06:11:39;;;;;;;2.9;1.2;;;;;;;30.05;30.8291;1004.599;;;;
2019/06/22 06:14:05;;;;;;;4;1;;;;;;;30.05;30.8291;1004.615;;;;
2019/06/22 06:16:38;;;;;;;2.1;1.3;;;;;;;30.04;30.85254;1004.57;;;;
2019/06/22 06:18:57;;;;;;;2.7;1.2;;;;;;;30.04;30.87793;1004.563;;;;
2019/06/22 06:21:24;;;;;;;1.7;1.2;;;;;;;30.05;30.86621;1004.537;;;;
2019/06/22 06:24:14;;;;;;;2;1.1;;;;;;;30.06;30.8418;1004.504;;;;
2019/06/22 06:27:15;;;;;;;1.8;1.1;;;;;;;30.11;30.78418;1004.549;;;;
2019/06/22 06:29:41;;;;;;;2.1;1.2;;;;;;;30.1;30.7959;1004.506;;;;
2019/06/22 06:30:15;;;;;;;4;1.3;;;;;;;30.11;30.82129;1004.489;;;;
2019/06/22 06:32:40;;;;;;;2.2;1.1;;;;;;;30.14;30.78613;1004.463;;;;
2019/06/22 06:35:19;;;;;;;2.3;1.2;;;;;;;30.13;30.78516;1004.443;;;;
2019/06/22 06:37:48;;;;;;;2.2;1.2;;;;;;;30.12;30.78516;1004.422;;;;
2019/06/22 06:40:13;;;;;;;2.2;1.3;;;;;;;30.11;30.80859;1004.386;;;;
2019/06/22 06:42:39;;;;;;;4.2;1.4;;;;;;;30.1;30.83301;1004.413;;;;
2019/06/22 06:45:58;;;;;;;3.1;1.2;;;;;;;30.15;30.78711;1004.401;;;;
2019/06/22 06:48:25;;;;;;;2.4;1.4;;;;;;;30.14;30.78711;1004.392;;;;
2019/06/22 06:50:51;;;;;;;3.1;1.3;;;;;;;30.13;30.82227;1004.419;;;;
2019/06/22 06:53:16;;;;;;;1.7;1.1;;;;;;;30.11;30.85742;1004.395;;;;
2019/06/22 06:55:42;;;;;;;3;1.3;;;;;;;30.1;30.86914;1004.422;;;;
2019/06/22 06:58:07;;;;;;;1.9;1.1;;;;;;;30.11;30.87012;1004.432;;;;
2019/06/22 06:58:52;;;;;;;1.5;1.2;;;;;;;30.11;30.87012;1004.434;;;;
2019/06/22 07:01:17;;;;;;;2.2;1.2;;;;;;;30.12;30.88379;1004.447;;;;
2019/06/22 07:04:46;;;;;;;1.9;1.3;;;;;;;30.18;30.82617;1004.43;;;;
2019/06/22 07:07:12;;;;;;;1.7;1.1;;;;;;;30.16;30.84863;1004.4;;;;
2019/06/22 07:09:37;;;;;;;3;1.3;;;;;;;30.14;30.9209;1004.386;;;;
2019/06/22 07:12:02;;;;;;;2.9;1.3;;;;;;;30.13;30.96875;1004.389;;;;
2019/06/22 07:14:33;;;;;;;2.5;1.2;;;;;;;30.11;30.99219;1004.417;;;;
2019/06/22 07:17:11;;;;;;;1.8;1.4;;;;;;;30.08;31.05176;1004.38;;;;
2019/06/22 07:19:40;;;;;;;2;1.1;;;;;;;30.07;31.10059;1004.334;;;;
2019/06/22 07:22:05;;;;;;;2.8;1.4;;;;;;;30.06;31.14844;1004.315;;;;
2019/06/22 07:24:43;;;;;;;4;1.3;;;;;;;30.05;31.20898;1004.288;;;;
2019/06/22 07:27:08;;;;;;;2.2;1.2;;;;;;;30.04;31.29395;1004.275;;;;
2019/06/22 07:29:33;;;;;;;2.4;1.3;;;;;;;30.05;31.25781;1004.268;;;;
2019/06/22 07:31:58;;;;;;;2.4;1.3;;;;;;;30.05;31.30664;1004.299;;;;
2019/06/22 07:34:24;;;;;;;2.4;1.6;;;;;;;30.06;31.29492;1004.261;;;;
2019/06/22 07:36:49;;;;;;;3.3;1.6;;;;;;;30.06;31.33203;1004.262;;;;
2019/06/22 07:39:14;;;;;;;2.4;1.5;;;;;;;30.06;31.33203;1004.323;;;;
2019/06/22 07:42:33;;;;;;;3.1;1.4;;;;;;;30.12;31.26367;1004.33;;;;
2019/06/22 07:44:59;;;;;;;2.5;1.3;;;;;;;30.12;31.27539;1004.318;;;;
2019/06/22 07:48:18;;;;;;;2.7;1.5;;;;;;;30.19;31.15723;1004.309;;;;
2019/06/22 07:50:43;;;;;;;1.9;1.3;;;;;;;30.16;31.2168;1004.269;;;;
2019/06/22 07:53:13;;;;;;;3.1;1.4;;;;;;;30.14;31.28906;1004.294;;;;
2019/06/22 07:55:39;;;;;;;2;1.5;;;;;;;30.11;31.36035;1004.274;;;;
2019/06/22 07:58:04;;;;;;;3.4;1.5;;;;;;;30.09;31.43262;1004.223;;;;
2019/06/22 08:00:30;;;;;;;1.8;1.5;;;;;;;30.08;31.49316;1004.241;;;;
2019/06/22 08:03:19;;;;;;;3.3;1.9;;;;;;;30.08;31.5293;1004.227;;;;
2019/06/22 08:05:44;;;;;;;2.4;1.4;;;;;;;30.05;31.60059;1004.218;;;;
2019/06/22 08:08:10;;;;;;;2;1.5;;;;;;;30.05;31.6377;1004.158;;;;
2019/06/22 08:11:28;;;;;;;2.6;1.6;;;;;;;30.04;31.74805;1004.127;;;;
2019/06/22 08:14:09;;;;;;;2.5;1.6;;;;;;;30.03;31.74609;1004.009;;;;
2019/06/22 08:16:47;;;;;;;1.8;1.4;;;;;;;30.01;31.84277;1003.917;;;;
2019/06/22 08:19:12;;;;;;;2.2;1.5;;;;;;;30;31.95215;1003.859;;;;
2019/06/22 08:22:33;;;;;;;3.7;1.5;;;;;;;30.02;31.97852;1003.87;;;;
2019/06/22 08:23:03;;;;;;;2.7;1.7;;;;;;;30.02;31.99121;1003.888;;;;
2019/06/22 08:25:28;;;;;;;3.3;1.6;;;;;;;30.06;31.94531;1003.941;;;;
2019/06/22 08:27:54;;;;;;;2.3;1.6;;;;;;;30.06;31.95703;1003.985;;;;
2019/06/22 08:30:25;;;;;;;2.7;1.6;;;;;;;30.06;31.98145;1004.01;;;;
2019/06/22 08:32:51;;;;;;;2;1.5;;;;;;;30.05;31.99219;1003.999;;;;
2019/06/22 08:35:16;;;;;;;2.7;1.6;;;;;;;30.04;32.05371;1003.991;;;;
2019/06/22 08:37:41;;;;;;;2.5;1.5;;;;;;;30.04;32.09082;1003.977;;;;
2019/06/22 08:38:14;;;;;;;3.1;1.7;;;;;;;30.05;32.07813;1003.954;;;;
2019/06/22 08:40:39;;;;;;;3.4;1.8;;;;;;;30.08;32.04395;1003.987;;;;
2019/06/22 08:43:05;;;;;;;2.4;1.6;;;;;;;30.07;32.09277;1004.015;;;;
2019/06/22 08:45:37;;;;;;;2.9;1.6;;;;;;;30.06;32.18945;1004.015;;;;
2019/06/22 08:48:02;;;;;;;3.8;1.7;;;;;;;30.05;32.25;1004.022;;;;
2019/06/22 08:50:28;;;;;;;3.3;1.8;;;;;;;30.05;32.34863;1004.02;;;;
2019/06/22 08:53:47;;;;;;;3.3;1.8;;;;;;;30.09;32.32617;1004.05;;;;
2019/06/22 08:56:12;;;;;;;2.5;1.7;;;;;;;30.08;32.38672;1004.078;;;;
2019/06/22 08:58:37;;;;;;;2.5;1.6;;;;;;;30.06;32.47168;1004.091;;;;
2019/06/22 08:59:20;;;;;;;2.9;1.5;;;;;;;30.07;32.47266;1004.118;;;;
2019/06/22 09:01:58;;;;;;;2;1.4;;;;;;;30.07;32.45996;1004.154;;;;
2019/06/22 09:04:42;;;;;;;3.5;1.6;;;;;;;30.05;32.51953;1004.128;;;;
2019/06/22 09:07:17;;;;;;;3.1;1.6;;;;;;;30.02;32.60352;1004.08;;;;
2019/06/22 09:09:43;;;;;;;2.6;1.8;;;;;;;30.01;32.67578;1004.025;;;;
2019/06/22 09:12:08;;;;;;;3.3;1.8;;;;;;;30.01;32.72461;1004.022;;;;
2019/06/22 09:14:33;;;;;;;2.9;1.7;;;;;;;30.02;32.73828;1004.045;;;;
2019/06/22 09:16:58;;;;;;;3.3;1.7;;;;;;;30.03;32.7627;1004.025;;;;
2019/06/22 09:19:24;;;;;;;2.5;1.6;;;;;;;30.02;32.79883;1003.997;;;;
2019/06/22 09:21:49;;;;;;;3.3;1.8;;;;;;;30.03;32.84766;1004.019;;;;
2019/06/22 09:25:08;;;;;;;2.5;1.7;;;;;;;30.04;33.00879;1004.016;;;;
2019/06/22 09:27:33;;;;;;;2.5;1.8;;;;;;;30.03;33.06934;1003.98;;;;
2019/06/22 09:30:52;;;;;;;2.7;1.9;;;;;;;30.08;33.02441;1003.959;;;;
2019/06/22 09:33:18;;;;;;;3;1.7;;;;;;;30.08;33.10938;1003.986;;;;
2019/06/22 09:35:43;;;;;;;3.5;2.1;;;;;;;30.07;33.14551;1003.925;;;;
2019/06/22 09:38:11;;;;;;;3;1.9;;;;;;;30.05;33.24219;1003.911;;;;
2019/06/22 09:40:37;;;;;;;2.6;1.8;;;;;;;30.03;33.35156;1003.834;;;;
2019/06/22 09:43:05;;;;;;;3.7;1.9;;;;;;;30.02;33.46094;1003.876;;;;
2019/06/22 09:45:30;;;;;;;2.4;1.8;;;;;;;30.02;33.47266;1003.911;;;;
2019/06/22 09:47:56;;;;;;;2.8;2;;;;;;;30.02;33.46094;1003.943;;;;
2019/06/22 09:50:21;;;;;;;3.8;2;;;;;;;30.03;33.49805;1003.888;;;;
2019/06/22 09:52:46;;;;;;;1.8;1.6;;;;;;;30.02;33.50977;1003.777;;;;
2019/06/22 09:55:11;;;;;;;2.8;1.8;;;;;;;30.03;33.54688;1003.81;;;;
2019/06/22 09:55:41;;;;;;;3.4;1.8;;;;;;;30.02;33.57031;1003.803;;;;
2019/06/22 09:58:07;;;;;;;2.9;2;;;;;;;30.06;33.46387;1003.817;;;;
2019/06/22 10:00:32;;;;;;;3.2;1.9;;;;;;;30.06;33.45117;1003.835;;;;
2019/06/22 10:02:57;;;;;;;3.7;1.8;;;;;;;30.06;33.50098;1003.807;;;;
2019/06/22 10:05:23;;;;;;;2.6;1.8;;;;;;;30.06;33.5127;1003.809;;;;
2019/06/22 10:07:48;;;;;;;2.7;1.7;;;;;;;30.06;33.51172;1003.802;;;;
2019/06/22 10:10:13;;;;;;;4.2;1.9;;;;;;;30.07;33.53809;1003.845;;;;
2019/06/22 10:12:39;;;;;;;2.8;1.8;;;;;;;30.07;33.5498;1003.81;;;;
2019/06/22 10:15:04;;;;;;;3.8;2;;;;;;;30.07;33.51367;1003.796;;;;
2019/06/22 10:17:29;;;;;;;2.6;1.8;;;;;;;30.08;33.41504;1003.773;;;;
2019/06/22 10:19:54;;;;;;;3.1;1.7;;;;;;;30.08;33.51367;1003.764;;;;
2019/06/22 10:22:20;;;;;;;3.1;1.8;;;;;;;30.08;33.5752;1003.804;;;;
2019/06/22 10:24:45;;;;;;;2.6;1.8;;;;;;;30.08;33.52637;1003.813;;;;
2019/06/22 10:25:06;;;;;;;3;1.8;;;;;;;30.08;33.50195;1003.821;;;;
2019/06/22 10:27:31;;;;;;;2.2;1.8;;;;;;;30.11;33.52832;1003.816;;;;
2019/06/22 10:30:07;;;;;;;3.9;2.2;;;;;;;30.11;33.51563;1003.791;;;;
2019/06/22 10:32:32;;;;;;;2.9;1.9;;;;;;;30.1;33.52734;1003.801;;;;
2019/06/22 10:35:51;;;;;;;2.5;1.9;;;;;;;30.14;33.50586;1003.799;;;;
2019/06/22 10:38:17;;;;;;;2.6;2;;;;;;;30.14;33.49414;1003.821;;;;
2019/06/22 10:40:42;;;;;;;5.7;1.9;;;;;;;30.13;33.50488;1003.818;;;;
2019/06/22 10:43:08;;;;;;;2.6;1.9;;;;;;;30.12;33.57813;1003.786;;;;
2019/06/22 10:45:33;;;;;;;3.9;2.1;;;;;;;30.13;33.56641;1003.811;;;;
2019/06/22 10:47:58;;;;;;;3.8;1.8;;;;;;;30.12;33.50488;1003.804;;;;
2019/06/22 10:50:24;;;;;;;3.4;2;;;;;;;30.13;33.55371;1003.797;;;;
2019/06/22 10:52:49;;;;;;;2.5;1.9;;;;;;;30.12;33.57813;1003.81;;;;
2019/06/22 10:55:15;;;;;;;2.4;1.7;;;;;;;30.12;33.57813;1003.833;;;;
2019/06/22 10:58:42;;;;;;;3.7;1.8;;;;;;;30.14;33.60449;1003.849;;;;
2019/06/22 11:01:08;;;;;;;3.4;2.1;;;;;;;30.14;33.61621;1003.805;;;;
2019/06/22 11:03:35;;;;;;;3.1;1.9;;;;;;;30.13;33.66406;1003.813;;;;
2019/06/22 11:06:24;;;;;;;2.4;1.9;;;;;;;30.1;33.76074;1003.798;;;;
2019/06/22 11:08:50;;;;;;;3.1;2;;;;;;;30.09;33.88281;1003.766;;;;
2019/06/22 11:11:15;;;;;;;3.1;2;;;;;;;30.08;33.86914;1003.734;;;;
2019/06/22 11:13:40;;;;;;;2.6;2;;;;;;;30.1;33.94434;1003.732;;;;
2019/06/22 11:16:06;;;;;;;3;2;;;;;;;30.1;34.00488;1003.713;;;;
2019/06/22 11:18:31;;;;;;;3.3;2;;;;;;;30.12;34.05566;1003.701;;;;
2019/06/22 11:20:56;;;;;;;2.7;1.9;;;;;;;30.11;34.0791;1003.734;;;;
2019/06/22 11:23:21;;;;;;;2.4;1.9;;;;;;;30.1;34.23828;1003.754;;;;
2019/06/22 11:25:47;;;;;;;2.8;2;;;;;;;30.1;34.32422;1003.735;;;;
2019/06/22 11:28:12;;;;;;;3.2;2;;;;;;;30.1;34.33594;1003.71;;;;
2019/06/22 11:30:37;;;;;;;3.2;2;;;;;;;30.1;34.32422;1003.654;;;;
2019/06/22 11:33:03;;;;;;;3.2;2.1;;;;;;;30.1;34.2627;1003.653;;;;
2019/06/22 11:36:22;;;;;;;2.5;2.3;;;;;;;30.12;34.35059;1003.651;;;;
2019/06/22 11:38:47;;;;;;;3.4;2.3;;;;;;;30.12;34.35059;1003.609;;;;
2019/06/22 11:41:22;;;;;;;3;2.1;;;;;;;30.12;34.3623;1003.606;;;;
2019/06/22 11:43:47;;;;;;;2.6;2.1;;;;;;;30.11;34.32422;1003.538;;;;
2019/06/22 11:46:13;;;;;;;2.4;2;;;;;;;30.11;34.36133;1003.488;;;;
2019/06/22 11:50:25;;;;;;;3.4;2.2;;;;;;;30.2;34.27051;1003.363;;;;
2019/06/22 11:53:10;;;;;;;3.5;2.2;;;;;;;30.2;34.46582;1003.338;;;;
2019/06/22 11:55:43;;;;;;;4.6;2.4;;;;;;;30.16;34.5127;1003.267;;;;
2019/06/22 11:58:08;;;;;;;4.1;2.3;;;;;;;30.13;34.64453;1003.205;;;;
2019/06/22 12:00:35;;;;;;;2.5;2.1;;;;;;;30.12;34.63184;1003.189;;;;
2019/06/22 12:03:06;;;;;;;3;2;;;;;;;30.12;34.70508;1003.173;;;;
2019/06/22 12:05:32;;;;;;;3.6;2;;;;;;;30.12;34.80371;1003.224;;;;
2019/06/22 12:07:57;;;;;;;2.6;2.2;;;;;;;30.12;34.77832;1003.273;;;;
2019/06/22 12:10:22;;;;;;;4.2;2.4;;;;;;;30.13;34.7666;1003.278;;;;
2019/06/22 12:12:57;;;;;;;4.2;2.3;;;;;;;30.12;35.04883;1003.263;;;;
2019/06/22 12:15:23;;;;;;;4.3;2.5;;;;;;;30.11;35.08398;1003.212;;;;
2019/06/22 12:17:50;;;;;;;4;2.3;;;;;;;30.1;35.14453;1003.168;;;;
2019/06/22 12:20:15;;;;;;;3.8;2.3;;;;;;;30.09;35.27832;1003.102;;;;
2019/06/22 12:22:41;;;;;;;3.2;2.4;;;;;;;30.11;35.15723;1003.135;;;;
2019/06/22 12:25:06;;;;;;;3.4;2.3;;;;;;;30.12;35.28027;1003.082;;;;
2019/06/22 12:27:31;;;;;;;3.7;2.5;;;;;;;30.13;35.31836;1003.052;;;;
2019/06/22 12:29:57;;;;;;;3.7;2.5;;;;;;;30.14;35.4541;1003.013;;;;
2019/06/22 12:32:22;;;;;;;3.6;2.7;;;;;;;30.16;35.46777;1002.99;;;;
2019/06/22 12:34:59;;;;;;;3.5;2.5;;;;;;;30.17;35.44434;1002.925;;;;
2019/06/22 12:37:24;;;;;;;3.4;2.6;;;;;;;30.17;35.50586;1002.861;;;;
2019/06/22 12:39:51;;;;;;;3.9;2.7;;;;;;;30.18;35.65332;1002.828;;;;
2019/06/22 12:42:17;;;;;;;3.5;2.6;;;;;;;30.17;35.68848;1002.812;;;;
2019/06/22 12:44:42;;;;;;;3.2;2.5;;;;;;;30.17;35.7998;1002.767;;;;
2019/06/22 12:47:07;;;;;;;4.3;2.7;;;;;;;30.17;35.7998;1002.768;;;;
2019/06/22 12:49:43;;;;;;;3.8;2.8;;;;;;;30.19;35.95996;1002.755;;;;
2019/06/22 12:52:08;;;;;;;3.5;2.5;;;;;;;30.18;35.95996;1002.77;;;;
2019/06/22 12:55:27;;;;;;;4;2.9;;;;;;;30.24;35.92773;1002.8;;;;
2019/06/22 12:57:52;;;;;;;3.3;2.6;;;;;;;30.23;36.01367;1002.82;;;;
2019/06/22 13:00:18;;;;;;;3.3;2.5;;;;;;;30.24;36.08691;1002.835;;;;
2019/06/22 13:02:43;;;;;;;4.3;2.7;;;;;;;30.23;36.09863;1002.814;;;;
2019/06/22 13:06:02;;;;;;;5.2;2.9;;;;;;;30.25;36.23438;1002.798;;;;
2019/06/22 13:08:30;;;;;;;3.6;2.8;;;;;;;30.24;36.20898;1002.786;;;;
2019/06/22 13:10:55;;;;;;;3.4;2.8;;;;;;;30.24;36.18457;1002.85;;;;
2019/06/22 13:13:21;;;;;;;4.2;2.9;;;;;;;30.23;36.31934;1002.761;;;;
2019/06/22 13:15:46;;;;;;;4.4;2.8;;;;;;;30.23;36.37988;1002.788;;;;
2019/06/22 13:18:12;;;;;;;3.9;3.1;;;;;;;30.23;36.25781;1002.708;;;;
2019/06/22 13:20:43;;;;;;;4.8;2.8;;;;;;;30.22;36.26953;1002.672;;;;
2019/06/22 13:23:09;;;;;;;2.8;2.5;;;;;;;30.22;36.26953;1002.621;;;;
2019/06/22 13:23:24;;;;;;;4.1;2.6;;;;;;;30.23;36.25781;1002.597;;;;
2019/06/22 13:25:49;;;;;;;5.2;2.7;;;;;;;30.27;36.10156;1002.58;;;;
2019/06/22 13:28:18;;;;;;;4.7;3.1;;;;;;;30.26;36.02734;1002.552;;;;
2019/06/22 13:30:44;;;;;;;4;2.9;;;;;;;30.25;36.03809;1002.653;;;;
2019/06/22 13:33:09;;;;;;;4.1;2.7;;;;;;;30.25;35.98926;1002.715;;;;
2019/06/22 13:35:39;;;;;;;4.2;2.5;;;;;;;30.24;35.97656;1002.737;;;;
2019/06/22 13:38:05;;;;;;;4.3;2.8;;;;;;;30.24;35.98926;1002.712;;;;
2019/06/22 13:38:32;;;;;;;3.5;2.6;;;;;;;30.26;35.95313;1002.715;;;;
2019/06/22 13:40:57;;;;;;;3;2.3;;;;;;;30.3;35.85938;1002.706;;;;
2019/06/22 13:43:23;;;;;;;3;2.5;;;;;;;30.3;35.78516;1002.684;;;;
2019/06/22 13:45:48;;;;;;;3.5;2.5;;;;;;;30.29;35.73535;1002.639;;;;
2019/06/22 13:48:14;;;;;;;2.8;2.3;;;;;;;30.28;35.80859;1002.669;;;;
2019/06/22 13:50:39;;;;;;;3.4;2.6;;;;;;;30.28;35.90625;1002.672;;;;
2019/06/22 13:53:05;;;;;;;3.7;2.9;;;;;;;30.28;35.84473;1002.654;;;;
2019/06/22 13:55:30;;;;;;;3.8;2.7;;;;;;;30.28;35.86914;1002.654;;;;
2019/06/22 13:57:56;;;;;;;2.9;2.6;;;;;;;30.28;35.95508;1002.661;;;;
2019/06/22 14:00:29;;;;;;;3;2.6;;;;;;;30.27;35.9541;1002.626;;;;
2019/06/22 14:02:54;;;;;;;3.6;3;;;;;;;30.25;36.10059;1002.58;;;;
2019/06/22 14:05:19;;;;;;;3.9;2.7;;;;;;;30.26;36.11328;1002.518;;;;
2019/06/22 14:07:45;;;;;;;3.9;2.9;;;;;;;30.26;36.1748;1002.527;;;;
2019/06/22 14:10:17;;;;;;;2.8;2.5;;;;;;;30.26;36.21094;1002.495;;;;
2019/06/22 14:12:42;;;;;;;2.7;2.5;;;;;;;30.25;36.30859;1002.567;;;;
2019/06/22 14:15:24;;;;;;;4;3;;;;;;;30.24;36.2832;1002.556;;;;
2019/06/22 14:17:49;;;;;;;4.2;2.6;;;;;;;30.24;36.34375;1002.549;;;;
2019/06/22 14:20:14;;;;;;;4.1;2.7;;;;;;;30.24;36.44238;1002.578;;;;